Time;durP1;ratioP1;P1;durP2;ratioP2;P2;SDS_P1;SDS_P2;PMS_P1;PMS_P2;Temp;Humidity;BMP_temperature;BMP_pressure;BME280_temperature;BME280_humidity;BME280_pressure;Samples;Min_cycle;Max_cycle;Signal;HPM_P1;HPM_P2
2023/07/23 00:00:35;;;;;;;;;;;;;;;16.80;63.82;96285.91;5104181;28;19988;-69
2023/07/23 00:03:01;;;;;;;;;;;;;;;16.79;63.49;96283.47;5105545;28;19959;-69
2023/07/23 00:05:27;;;;;;;;;;;;;;;16.77;63.39;96289.03;5109254;28;19939;-69
2023/07/23 00:07:57;;;;;;;;;;;;;;;16.74;63.60;96289.56;5107880;28;20112;-70
2023/07/23 00:10:24;;;;;;;;;;;;;;;16.72;63.75;96283.75;5107791;28;19936;-70
2023/07/23 00:12:50;;;;;;;;;;;;;;;16.73;63.55;96292.47;5108313;28;19990;-70
2023/07/23 00:15:16;;;;;;;;;;;;;;;16.71;63.83;96284.78;5107957;28;19934;-71
2023/07/23 00:17:42;;;;;;;;;;;;;;;16.69;63.94;96275.50;5106945;28;19971;-71
2023/07/23 00:20:09;;;;;;;;;;;;;;;16.68;64.83;96287.16;5108600;28;20252;-71
2023/07/23 00:22:35;;;;;;;;;;;;;;;16.64;64.59;96281.59;5108658;28;20116;-71
2023/07/23 00:25:01;;;;;;;;;;;;;;;16.61;64.50;96274.97;5108134;28;19940;-69
2023/07/23 00:27:27;;;;;;;;;;;;;;;16.57;64.75;96279.19;5108585;28;19934;-71
2023/07/23 00:29:53;;;;;;;;;;;;;;;16.54;64.81;96274.41;5108456;28;19957;-77
2023/07/23 00:32:19;;;;;;;;;;;;;;;16.54;64.91;96281.56;5107460;28;20158;-77
2023/07/23 00:34:45;;;;;;;;;;;;;;;16.51;64.73;96277.59;5107911;28;19945;-76
2023/07/23 00:37:11;;;;;;;;;;;;;;;16.50;64.92;96283.91;5107829;28;19938;-77
2023/07/23 00:39:38;;;;;;;;;;;;;;;16.48;65.37;96282.59;5107789;28;19939;-78
2023/07/23 00:42:04;;;;;;;;;;;;;;;16.47;64.90;96281.00;5107745;28;20215;-77
2023/07/23 00:44:30;;;;;;;;;;;;;;;16.43;65.25;96270.94;5107699;28;19977;-70
2023/07/23 00:46:57;;;;;;;;;;;;;;;16.41;65.34;96273.03;5107641;28;19931;-69
2023/07/23 00:49:22;;;;;;;;;;;;;;;16.39;66.13;96267.22;5108294;28;19955;-70
2023/07/23 00:51:48;;;;;;;;;;;;;;;16.35;65.74;96266.13;5108387;28;19942;-69
2023/07/23 00:54:14;;;;;;;;;;;;;;;16.32;66.09;96266.66;5107505;28;19992;-70
2023/07/23 00:56:42;;;;;;;;;;;;;;;16.28;66.39;96255.00;5107331;28;19994;-70
2023/07/23 00:59:09;;;;;;;;;;;;;;;16.23;66.95;96257.59;5107674;28;19933;-70
2023/07/23 01:01:34;;;;;;;;;;;;;;;16.18;66.56;96257.59;5107491;28;20186;-70
2023/07/23 01:04:00;;;;;;;;;;;;;;;16.14;67.02;96259.94;5108169;28;20075;-78
2023/07/23 01:06:27;;;;;;;;;;;;;;;16.12;67.14;96261.28;5107270;28;19943;-70
2023/07/23 01:08:55;;;;;;;;;;;;;;;16.07;67.11;96254.13;5106064;28;19957;-70
2023/07/23 01:11:22;;;;;;;;;;;;;;;16.06;67.31;96254.38;5107655;28;19932;-70
2023/07/23 01:13:49;;;;;;;;;;;;;;;16.04;67.38;96246.69;5107578;28;19941;-70
2023/07/23 01:16:15;;;;;;;;;;;;;;;16.04;68.01;96251.97;5107584;28;20138;-69
2023/07/23 01:18:41;;;;;;;;;;;;;;;16.01;67.68;96250.63;5106853;28;19975;-70
2023/07/23 01:21:09;;;;;;;;;;;;;;;15.99;67.85;96247.44;5107546;28;20099;-76
2023/07/23 01:23:37;;;;;;;;;;;;;;;15.97;67.57;96249.56;5106224;28;20481;-80
2023/07/23 01:26:04;;;;;;;;;;;;;;;15.94;68.23;96244.00;5107694;28;19942;-79
2023/07/23 01:28:30;;;;;;;;;;;;;;;15.92;67.80;96252.19;5107615;28;19944;-79
2023/07/23 01:30:56;;;;;;;;;;;;;;;15.92;68.12;96244.25;5106726;28;19939;-79
2023/07/23 01:33:22;;;;;;;;;;;;;;;15.91;68.17;96242.66;5105699;28;19937;-79
2023/07/23 01:35:54;;;;;;;;;;;;;;;15.89;68.36;96239.47;5106731;28;19934;-79
2023/07/23 01:38:20;;;;;;;;;;;;;;;15.88;68.01;96242.38;5107440;28;19948;-76
2023/07/23 01:40:47;;;;;;;;;;;;;;;15.86;68.26;96239.19;5107400;28;19945;-84
2023/07/23 01:43:13;;;;;;;;;;;;;;;15.85;68.39;96238.38;5107104;28;19940;-84
2023/07/23 01:45:42;;;;;;;;;;;;;;;15.82;68.43;96239.69;5107322;28;19935;-85
2023/07/23 01:48:08;;;;;;;;;;;;;;;15.82;69.33;96241.56;5106477;28;19934;-84
2023/07/23 01:50:34;;;;;;;;;;;;;;;15.78;68.57;96235.97;5105738;28;20010;-84
2023/07/23 01:53:00;;;;;;;;;;;;;;;15.75;68.83;96231.22;5106323;28;19938;-85
2023/07/23 01:55:26;;;;;;;;;;;;;;;15.74;68.81;96240.19;5106550;28;19930;-84
2023/07/23 01:57:51;;;;;;;;;;;;;;;15.71;69.29;96245.97;5088256;28;19965;-79
2023/07/23 02:00:19;;;;;;;;;;;;;;;15.69;69.71;96240.13;5106246;28;19935;-70
2023/07/23 02:02:45;;;;;;;;;;;;;;;15.66;69.26;96232.69;5106204;28;19938;-69
2023/07/23 02:05:11;;;;;;;;;;;;;;;15.66;68.95;96239.84;5106347;28;19930;-70
2023/07/23 02:07:37;;;;;;;;;;;;;;;15.63;69.30;96236.66;5106587;28;19937;-69
2023/07/23 02:10:02;;;;;;;;;;;;;;;15.59;69.13;96225.00;5106248;28;19949;-70
2023/07/23 02:12:28;;;;;;;;;;;;;;;15.58;69.48;96228.69;5105968;28;19931;-69
2023/07/23 02:14:54;;;;;;;;;;;;;;;15.55;69.65;96229.19;5106484;28;19940;-79
2023/07/23 02:17:20;;;;;;;;;;;;;;;15.52;70.56;96228.91;5106581;28;19934;-70
2023/07/23 02:19:46;;;;;;;;;;;;;;;15.49;70.39;96234.69;5106408;28;19937;-77
2023/07/23 02:22:12;;;;;;;;;;;;;;;15.47;69.78;96227.03;5105794;28;19943;-77
2023/07/23 02:24:37;;;;;;;;;;;;;;;15.45;69.86;96239.69;5106288;28;20003;-76
2023/07/23 02:27:03;;;;;;;;;;;;;;;15.41;70.07;96234.13;5105145;28;19943;-77
2023/07/23 02:29:29;;;;;;;;;;;;;;;15.40;70.43;96242.31;5105824;28;20002;-77
2023/07/23 02:31:55;;;;;;;;;;;;;;;15.36;70.21;96239.38;5104535;28;20244;-77
2023/07/23 02:34:21;;;;;;;;;;;;;;;15.34;70.26;96238.81;5087506;28;19936;-79
2023/07/23 02:36:47;;;;;;;;;;;;;;;15.34;70.32;96238.03;5106123;28;19938;-79
2023/07/23 02:39:13;;;;;;;;;;;;;;;15.32;70.12;96235.63;5105491;28;19951;-79
2023/07/23 02:41:40;;;;;;;;;;;;;;;15.31;69.88;96241.97;5105953;28;19934;-79
2023/07/23 02:44:05;;;;;;;;;;;;;;;15.30;70.55;96250.16;5105366;28;20115;-79
2023/07/23 02:46:31;;;;;;;;;;;;;;;15.28;70.77;96250.41;5105023;28;19948;-79
2023/07/23 02:48:57;;;;;;;;;;;;;;;15.26;71.11;96249.84;5104159;28;19951;-79
2023/07/23 02:51:23;;;;;;;;;;;;;;;15.23;71.45;96253.00;5104695;28;19930;-79
2023/07/23 02:53:49;;;;;;;;;;;;;;;15.16;72.03;96250.59;5104066;28;20221;-77
2023/07/23 02:56:15;;;;;;;;;;;;;;;15.10;71.34;96248.94;5105128;28;19959;-69
2023/07/23 02:58:41;;;;;;;;;;;;;;;15.08;72.00;96247.63;5105104;28;19951;-69
2023/07/23 03:01:09;;;;;;;;;;;;;;;15.05;71.57;96246.25;5105866;28;19942;-68
2023/07/23 03:03:35;;;;;;;;;;;;;;;15.05;71.97;96250.75;5103860;28;19942;-68
2023/07/23 03:06:02;;;;;;;;;;;;;;;15.02;71.77;96249.41;5087737;28;19947;-69
2023/07/23 03:08:28;;;;;;;;;;;;;;;15.01;72.11;96245.97;5104533;28;19939;-69
2023/07/23 03:10:54;;;;;;;;;;;;;;;15.00;71.80;96254.94;5104262;28;19976;-69
2023/07/23 03:13:20;;;;;;;;;;;;;;;15.01;72.28;96264.47;5104262;28;19938;-85
2023/07/23 03:15:46;;;;;;;;;;;;;;;15.01;72.44;96247.78;5105094;28;19998;-84
2023/07/23 03:18:11;;;;;;;;;;;;;;;14.99;72.50;96250.72;5104636;28;19965;-84
2023/07/23 03:20:37;;;;;;;;;;;;;;;14.97;73.02;96244.88;5104727;28;19937;-84
2023/07/23 03:23:03;;;;;;;;;;;;;;;14.96;72.33;96245.13;5105516;28;20003;-85
2023/07/23 03:25:29;;;;;;;;;;;;;;;14.93;72.73;96262.25;5105485;28;19933;-84
2023/07/23 03:27:59;;;;;;;;;;;;;;;14.90;72.36;96256.69;5105153;28;19975;-84
2023/07/23 03:30:25;;;;;;;;;;;;;;;14.90;72.76;96259.31;5104516;28;19947;-85
2023/07/23 03:32:52;;;;;;;;;;;;;;;14.89;72.13;96249.78;5104582;28;19936;-79
2023/07/23 03:35:19;;;;;;;;;;;;;;;14.88;73.06;96259.56;5087011;28;19939;-78
2023/07/23 03:37:44;;;;;;;;;;;;;;;14.87;73.14;96246.63;5103898;28;19932;-79
2023/07/23 03:40:10;;;;;;;;;;;;;;;14.85;73.15;96251.38;5104065;28;20269;-78
2023/07/23 03:42:36;;;;;;;;;;;;;;;14.84;73.19;96252.41;5104408;28;19998;-78
2023/07/23 03:45:03;;;;;;;;;;;;;;;14.84;72.91;96252.41;5103801;28;19948;-79
2023/07/23 03:47:29;;;;;;;;;;;;;;;14.83;73.29;96248.97;5104382;28;19944;-70
2023/07/23 03:49:55;;;;;;;;;;;;;;;14.82;73.19;96256.09;5104827;28;19953;-77
2023/07/23 03:52:22;;;;;;;;;;;;;;;14.81;73.63;96257.13;5104310;28;19939;-79
2023/07/23 03:54:48;;;;;;;;;;;;;;;14.80;73.36;96254.72;5104821;28;19944;-78
2023/07/23 03:57:14;;;;;;;;;;;;;;;14.79;73.80;96256.56;5104225;28;19950;-78
2023/07/23 03:59:41;;;;;;;;;;;;;;;14.76;74.64;96253.63;5105067;28;19941;-79
2023/07/23 04:02:07;;;;;;;;;;;;;;;14.75;74.17;96259.97;5104221;28;19942;-79
2023/07/23 04:04:33;;;;;;;;;;;;;;;14.75;73.86;96257.34;5104186;28;20114;-78
2023/07/23 04:06:59;;;;;;;;;;;;;;;14.76;74.52;96258.91;5103134;28;19941;-76
2023/07/23 04:09:25;;;;;;;;;;;;;;;14.76;73.94;96251.00;5104649;28;20012;-76
2023/07/23 04:11:51;;;;;;;;;;;;;;;14.77;74.68;96256.03;5104392;28;19989;-76
2023/07/23 04:14:17;;;;;;;;;;;;;;;14.78;74.62;96262.91;5104102;28;19975;-76
2023/07/23 04:16:43;;;;;;;;;;;;;;;14.77;74.64;96263.94;5102986;28;19938;-76
2023/07/23 04:19:09;;;;;;;;;;;;;;;14.76;74.84;96261.53;5104005;28;19960;-75
2023/07/23 04:21:35;;;;;;;;;;;;;;;14.74;74.43;96261.81;5104044;28;20230;-76
2023/07/23 04:24:00;;;;;;;;;;;;;;;14.74;74.96;96266.28;5104028;28;20228;-71
2023/07/23 04:26:27;;;;;;;;;;;;;;;14.73;75.73;96272.63;5104833;28;19939;-77
2023/07/23 04:28:53;;;;;;;;;;;;;;;14.71;75.24;96269.44;5102634;28;19931;-69
2023/07/23 04:31:19;;;;;;;;;;;;;;;14.73;74.96;96269.97;5103963;28;19934;-69
2023/07/23 04:33:45;;;;;;;;;;;;;;;14.76;75.86;96272.09;5104731;28;20150;-69
2023/07/23 04:36:12;;;;;;;;;;;;;;;14.80;76.39;96281.94;5102818;28;19941;-69
2023/07/23 04:38:38;;;;;;;;;;;;;;;14.84;76.93;96274.31;5104176;28;20121;-69
2023/07/23 04:41:04;;;;;;;;;;;;;;;14.89;76.62;96277.00;5104367;28;19939;-70
2023/07/23 04:43:30;;;;;;;;;;;;;;;14.93;76.60;96272.81;5103840;28;19934;-69
2023/07/23 04:45:56;;;;;;;;;;;;;;;15.01;77.10;96282.13;5102738;28;19940;-69
2023/07/23 04:48:22;;;;;;;;;;;;;;;15.06;76.44;96270.84;5103375;28;19938;-70
2023/07/23 04:50:57;;;;;;;;;;;;;;;15.14;76.33;96273.00;5107222;28;19950;-70
2023/07/23 04:53:23;;;;;;;;;;;;;;;15.21;77.14;96278.88;5107768;28;20121;-70
2023/07/23 04:55:50;;;;;;;;;;;;;;;15.28;77.18;96270.75;5106260;28;20232;-70
2023/07/23 04:58:15;;;;;;;;;;;;;;;15.34;76.56;96265.25;5107157;28;20229;-69
2023/07/23 05:00:41;;;;;;;;;;;;;;;15.44;76.80;96269.81;5107959;28;19939;-79
2023/07/23 05:03:07;;;;;;;;;;;;;;;15.56;76.55;96266.97;5106153;28;19947;-79
2023/07/23 05:05:33;;;;;;;;;;;;;;;15.68;75.74;96264.16;5108112;28;20122;-70
2023/07/23 05:07:59;;;;;;;;;;;;;;;15.81;75.94;96267.19;5107270;28;19942;-71
2023/07/23 05:10:25;;;;;;;;;;;;;;;15.96;76.46;96274.44;5107633;28;19955;-71
2023/07/23 05:12:50;;;;;;;;;;;;;;;16.10;73.78;96258.09;5107170;28;19946;-70
2023/07/23 05:15:16;;;;;;;;;;;;;;;16.26;73.20;96262.41;5107946;28;19929;-71
2023/07/23 05:17:42;;;;;;;;;;;;;;;16.42;72.00;96247.34;5105754;28;19959;-71
2023/07/23 05:20:08;;;;;;;;;;;;;;;16.62;71.15;96241.34;5107858;28;19947;-70
2023/07/23 05:22:38;;;;;;;;;;;;;;;16.83;71.18;96247.50;5107478;28;19931;-70
2023/07/23 05:25:05;;;;;;;;;;;;;;;17.07;69.93;96234.53;5106883;28;19940;-70
2023/07/23 05:27:30;;;;;;;;;;;;;;;17.30;69.41;96227.91;5105712;28;19938;-70
2023/07/23 05:29:56;;;;;;;;;;;;;;;17.54;68.69;96228.19;5106732;28;19965;-70
2023/07/23 05:32:22;;;;;;;;;;;;;;;17.75;67.99;96230.81;5107263;28;19938;-71
2023/07/23 05:34:48;;;;;;;;;;;;;;;17.95;68.25;96233.41;5107559;28;19945;-70
2023/07/23 05:37:14;;;;;;;;;;;;;;;18.18;67.99;96228.56;5106693;28;19970;-70
2023/07/23 05:39:40;;;;;;;;;;;;;;;18.38;66.98;96230.34;5106632;28;19938;-76
2023/07/23 05:42:05;;;;;;;;;;;;;;;18.51;64.94;96205.84;5107165;28;19958;-79
2023/07/23 05:44:31;;;;;;;;;;;;;;;18.64;65.03;96215.84;5107410;28;19971;-79
2023/07/23 05:46:57;;;;;;;;;;;;;;;18.81;65.24;96215.50;5107246;28;19945;-79
2023/07/23 05:49:26;;;;;;;;;;;;;;;18.95;63.87;96207.72;5107243;28;19942;-79
2023/07/23 05:51:52;;;;;;;;;;;;;;;19.14;63.39;96201.75;5106586;28;19932;-79
2023/07/23 05:54:18;;;;;;;;;;;;;;;19.34;63.33;96201.56;5106364;28;19943;-78
2023/07/23 05:56:44;;;;;;;;;;;;;;;19.56;62.26;96203.75;5106278;28;19956;-71
2023/07/23 05:59:10;;;;;;;;;;;;;;;19.79;61.55;96190.78;5106305;28;19982;-70
2023/07/23 06:01:36;;;;;;;;;;;;;;;20.08;62.17;96196.03;5106068;28;19943;-70
2023/07/23 06:04:02;;;;;;;;;;;;;;;20.38;59.99;96186.88;5105063;28;19941;-71
2023/07/23 06:06:27;;;;;;;;;;;;;;;20.50;59.63;96191.00;5105073;28;19983;-70
2023/07/23 06:08:53;;;;;;;;;;;;;;;20.45;59.79;96194.50;5106087;28;19964;-70
2023/07/23 06:11:20;;;;;;;;;;;;;;;20.25;59.91;96204.34;5106490;28;19955;-70
2023/07/23 06:13:46;;;;;;;;;;;;;;;20.00;60.04;96196.66;5105914;28;19938;-70
2023/07/23 06:16:12;;;;;;;;;;;;;;;19.70;60.20;96200.41;5105893;28;19942;-84
2023/07/23 06:18:38;;;;;;;;;;;;;;;19.46;62.63;96217.94;5104963;28;19968;-79
2023/07/23 06:21:03;;;;;;;;;;;;;;;19.29;63.40;96222.09;5105843;28;19951;-80
2023/07/23 06:23:30;;;;;;;;;;;;;;;19.17;64.40;96230.41;5105765;28;19934;-80
2023/07/23 06:25:57;;;;;;;;;;;;;;;19.13;65.03;96226.72;5106309;28;19946;-80
2023/07/23 06:28:23;;;;;;;;;;;;;;;19.11;65.27;96232.34;5104645;28;19940;-80
2023/07/23 06:30:55;;;;;;;;;;;;;;;19.13;63.95;96226.72;5106123;28;20126;-79
2023/07/23 06:33:21;;;;;;;;;;;;;;;19.12;62.98;96223.28;5105329;28;19942;-78
2023/07/23 06:35:47;;;;;;;;;;;;;;;19.13;62.85;96219.56;5105531;28;19941;-71
2023/07/23 06:38:14;;;;;;;;;;;;;;;19.16;62.77;96223.53;5104417;28;19943;-70
2023/07/23 06:40:46;;;;;;;;;;;;;;;19.21;62.39;96218.16;5106219;28;19945;-70
2023/07/23 06:43:12;;;;;;;;;;;;;;;19.30;63.47;96221.00;5105442;28;19941;-71
2023/07/23 06:45:38;;;;;;;;;;;;;;;19.47;63.62;96216.06;5105291;28;19972;-70
2023/07/23 06:48:04;;;;;;;;;;;;;;;19.63;62.78;96211.38;5105308;28;19938;-70
2023/07/23 06:50:31;;;;;;;;;;;;;;;19.74;62.89;96217.44;5105742;28;19953;-70
2023/07/23 06:52:57;;;;;;;;;;;;;;;19.82;62.92;96212.31;5105568;28;19933;-69
2023/07/23 06:55:23;;;;;;;;;;;;;;;19.96;62.55;96206.28;5104686;28;19932;-71
2023/07/23 06:57:49;;;;;;;;;;;;;;;20.15;61.64;96201.81;5105115;28;20118;-70
2023/07/23 07:00:15;;;;;;;;;;;;;;;20.28;60.23;96193.13;5105649;28;19937;-70
2023/07/23 07:02:41;;;;;;;;;;;;;;;20.37;61.49;96190.63;5105840;28;19943;-70
2023/07/23 07:05:07;;;;;;;;;;;;;;;20.41;59.71;96188.97;5105280;28;19937;-70
2023/07/23 07:07:35;;;;;;;;;;;;;;;20.37;60.03;96190.63;5105728;28;20000;-70
2023/07/23 07:10:01;;;;;;;;;;;;;;;20.46;60.59;96193.44;5104879;28;19959;-69
2023/07/23 07:12:28;;;;;;;;;;;;;;;20.64;59.58;96194.53;5105279;28;19939;-78
2023/07/23 07:14:54;;;;;;;;;;;;;;;20.97;58.41;96186.59;5105639;28;19940;-78
2023/07/23 07:17:20;;;;;;;;;;;;;;;21.31;58.31;96185.50;5104665;28;19943;-77
2023/07/23 07:19:46;;;;;;;;;;;;;;;21.65;55.65;96178.00;5105252;28;19942;-78
2023/07/23 07:22:12;;;;;;;;;;;;;;;21.81;56.50;96177.69;5104737;28;20251;-78
2023/07/23 07:24:38;;;;;;;;;;;;;;;21.87;55.23;96174.63;5105207;28;20204;-78
2023/07/23 07:27:08;;;;;;;;;;;;;;;21.94;53.86;96170.78;5105166;28;19952;-78
2023/07/23 07:29:34;;;;;;;;;;;;;;;21.86;53.97;96177.63;5104704;28;19940;-75
2023/07/23 07:32:00;;;;;;;;;;;;;;;21.86;54.25;96182.97;5104573;28;19935;-76
2023/07/23 07:34:26;;;;;;;;;;;;;;;21.89;54.60;96180.47;5105336;28;20127;-76
2023/07/23 07:36:52;;;;;;;;;;;;;;;22.03;55.39;96185.81;5103488;28;20268;-75
2023/07/23 07:39:18;;;;;;;;;;;;;;;22.28;52.53;96175.72;5104524;28;19931;-76
2023/07/23 07:41:44;;;;;;;;;;;;;;;22.54;53.78;96191.22;5105193;28;20092;-78
2023/07/23 07:44:10;;;;;;;;;;;;;;;22.64;50.60;96178.41;5104457;28;19942;-76
2023/07/23 07:46:36;;;;;;;;;;;;;;;22.73;51.59;96185.72;5105215;28;20009;-72
2023/07/23 07:49:02;;;;;;;;;;;;;;;22.75;50.02;96178.19;5104379;28;20239;-71
2023/07/23 07:51:28;;;;;;;;;;;;;;;22.69;50.76;96188.19;5104845;28;20111;-82
2023/07/23 07:53:54;;;;;;;;;;;;;;;22.70;49.81;96176.41;5104294;28;20033;-82
2023/07/23 07:56:20;;;;;;;;;;;;;;;22.86;51.29;96187.53;5104259;28;19948;-82
2023/07/23 07:58:46;;;;;;;;;;;;;;;23.01;50.47;96197.91;5104826;28;20264;-82
2023/07/23 08:01:13;;;;;;;;;;;;;;;23.00;49.90;96184.81;5104233;28;19941;-83
2023/07/23 08:03:38;;;;;;;;;;;;;;;23.02;49.06;96178.09;5104241;28;19951;-83
2023/07/23 08:06:05;;;;;;;;;;;;;;;23.11;50.78;96183.50;5104255;28;19935;-78
2023/07/23 08:08:32;;;;;;;;;;;;;;;23.20;50.38;96181.66;5104764;28;20104;-80
2023/07/23 08:10:59;;;;;;;;;;;;;;;23.13;48.91;96178.63;5104116;28;19954;-80
2023/07/23 08:13:25;;;;;;;;;;;;;;;23.04;50.13;96186.59;5103898;28;20062;-82
2023/07/23 08:15:51;;;;;;;;;;;;;;;22.99;49.19;96189.34;5104117;28;20120;-80
2023/07/23 08:18:18;;;;;;;;;;;;;;;22.99;49.54;96183.22;5103907;28;19973;-80
2023/07/23 08:20:43;;;;;;;;;;;;;;;22.97;49.57;96186.19;5102900;28;19950;-80
2023/07/23 08:23:10;;;;;;;;;;;;;;;22.98;50.63;96193.13;5103796;28;19987;-77
2023/07/23 08:25:36;;;;;;;;;;;;;;;23.08;50.66;96187.56;5107473;28;20134;-69
2023/07/23 08:28:02;;;;;;;;;;;;;;;23.24;49.54;96198.69;5106964;28;19937;-70
2023/07/23 08:30:28;;;;;;;;;;;;;;;23.31;49.95;96190.25;5107975;28;20117;-71
2023/07/23 08:32:55;;;;;;;;;;;;;;;23.30;48.34;96181.41;5107712;28;19934;-70
2023/07/23 08:35:22;;;;;;;;;;;;;;;23.37;49.86;96182.88;5090677;28;19939;-70
2023/07/23 08:37:48;;;;;;;;;;;;;;;23.46;49.49;96186.41;5108118;28;19946;-70
2023/07/23 08:40:14;;;;;;;;;;;;;;;23.55;49.65;96179.19;5107552;28;19957;-70
2023/07/23 08:42:46;;;;;;;;;;;;;;;23.53;49.20;96181.38;5106706;28;19943;-71
2023/07/23 08:45:28;;;;;;;;;;;;;;;23.50;49.40;96203.41;5108593;28;19937;-80
2023/07/23 08:48:09;;;;;;;;;;;;;;;23.50;49.76;96198.06;5107726;28;19933;-80
2023/07/23 08:50:36;;;;;;;;;;;;;;;23.46;49.21;96197.09;5108043;28;19950;-80
2023/07/23 08:53:03;;;;;;;;;;;;;;;23.35;48.22;96193.06;5106532;28;19934;-81
2023/07/23 08:55:29;;;;;;;;;;;;;;;23.32;47.71;96199.84;5106372;28;19934;-80
2023/07/23 08:57:55;;;;;;;;;;;;;;;23.38;47.71;96195.94;5108013;28;19966;-81
2023/07/23 09:00:22;;;;;;;;;;;;;;;23.50;48.29;96195.38;5106355;28;19924;-76
2023/07/23 09:02:49;;;;;;;;;;;;;;;23.67;48.49;96194.69;5107324;28;19935;-80
2023/07/23 09:05:15;;;;;;;;;;;;;;;23.77;47.97;96183.72;5107633;28;20099;-82
2023/07/23 09:07:40;;;;;;;;;;;;;;;;;;5107298;28;19974;-83
2023/07/23 09:10:07;;;;;;;;;;;;;;;23.77;48.21;96191.78;5107213;28;19975;-82
2023/07/23 09:12:33;;;;;;;;;;;;;;;23.67;47.71;96194.69;5107248;28;19936;-84
2023/07/23 09:15:03;;;;;;;;;;;;;;;23.69;48.96;96195.94;5107210;28;19938;-83
2023/07/23 09:17:29;;;;;;;;;;;;;;;23.74;48.02;96188.88;5106896;28;19933;-83
2023/07/23 09:19:54;;;;;;;;;;;;;;;23.66;45.18;96183.16;5107951;28;20156;-76
2023/07/23 09:22:20;;;;;;;;;;;;;;;23.70;46.93;96196.72;5107327;28;19931;-70
2023/07/23 09:24:46;;;;;;;;;;;;;;;23.94;47.38;96200.94;5107218;28;19936;-70
2023/07/23 09:27:12;;;;;;;;;;;;;;;24.11;46.55;96192.97;5106998;28;19977;-70
2023/07/23 09:29:39;;;;;;;;;;;;;;;24.17;45.79;96189.06;5107371;28;20005;-70
2023/07/23 09:32:15;;;;;;;;;;;;;;;24.19;46.70;96194.09;5107135;28;19949;-70
2023/07/23 09:34:47;;;;;;;;;;;;;;;24.11;44.28;96190.31;5088941;28;19936;-70
2023/07/23 09:37:13;;;;;;;;;;;;;;;24.06;44.62;96195.78;5105848;28;19946;-69
2023/07/23 09:39:39;;;;;;;;;;;;;;;24.02;45.04;96195.63;5105406;28;19947;-70
2023/07/23 09:42:05;;;;;;;;;;;;;;;24.09;45.20;96200.53;5107087;28;19983;-69
2023/07/23 09:44:31;;;;;;;;;;;;;;;24.21;44.94;96190.03;5105654;28;19943;-70
2023/07/23 09:46:57;;;;;;;;;;;;;;;24.39;45.37;96190.03;5105190;28;19945;-69
2023/07/23 09:49:28;;;;;;;;;;;;;;;24.57;44.82;96185.50;5105135;28;19941;-69
2023/07/23 09:51:53;;;;;;;;;;;;;;;24.62;44.94;96191.50;5106891;28;19958;-69
2023/07/23 09:54:20;;;;;;;;;;;;;;;24.75;44.03;96178.28;5106852;28;20154;-69
2023/07/23 09:56:46;;;;;;;;;;;;;;;24.95;44.90;96179.50;5105084;28;20145;-76
2023/07/23 09:59:12;;;;;;;;;;;;;;;25.25;43.37;96178.56;5106287;28;19934;-79
2023/07/23 10:01:38;;;;;;;;;;;;;;;25.35;42.31;96173.97;5106166;28;19941;-79
2023/07/23 10:04:04;;;;;;;;;;;;;;;25.30;43.86;96185.66;5107046;28;19939;-77
2023/07/23 10:06:30;;;;;;;;;;;;;;;25.29;43.67;96181.41;5106658;28;20021;-76
2023/07/23 10:08:56;;;;;;;;;;;;;;;25.15;43.34;96175.41;5106139;28;20120;-77
2023/07/23 10:11:22;;;;;;;;;;;;;;;25.03;43.73;96176.03;5106821;28;19950;-77
2023/07/23 10:13:48;;;;;;;;;;;;;;;24.97;43.84;96171.94;5106011;28;20243;-72
2023/07/23 10:16:17;;;;;;;;;;;;;;;25.00;44.12;96169.41;5106514;28;20248;-75
2023/07/23 10:18:43;;;;;;;;;;;;;;;25.04;43.11;96159.63;5105700;28;19964;-76
2023/07/23 10:21:10;;;;;;;;;;;;;;;25.10;42.53;96154.88;5106448;28;19944;-75
2023/07/23 10:23:37;;;;;;;;;;;;;;;25.23;42.94;96151.25;5105825;28;19932;-75
2023/07/23 10:26:23;;;;;;;;;;;;;;;25.38;42.73;96136.53;5105753;28;19944;-74
2023/07/23 10:28:50;;;;;;;;;;;;;;;25.51;42.72;96146.28;5105717;28;19942;-76
2023/07/23 10:31:19;;;;;;;;;;;;;;;25.58;40.83;96140.41;5106160;28;19956;-78
2023/07/23 10:33:45;;;;;;;;;;;;;;;25.66;41.21;96144.97;5104558;28;19952;-76
2023/07/23 10:36:11;;;;;;;;;;;;;;;25.72;41.71;96146.38;5105624;28;19937;-82
2023/07/23 10:38:38;;;;;;;;;;;;;;;25.81;41.28;96150.91;5087344;28;20000;-83
2023/07/23 10:41:04;;;;;;;;;;;;;;;25.75;40.74;96144.94;5105142;28;20003;-80
2023/07/23 10:43:37;;;;;;;;;;;;;;;25.70;40.57;96139.72;5106021;28;20095;-85
2023/07/23 10:46:03;;;;;;;;;;;;;;;25.62;40.28;96137.84;5104391;28;19936;-82
2023/07/23 10:48:49;;;;;;;;;;;;;;;25.50;39.86;96135.88;5104918;28;19927;-83
2023/07/23 10:51:24;;;;;;;;;;;;;;;25.61;40.80;96130.91;5105794;28;19966;-81
2023/07/23 10:53:58;;;;;;;;;;;;;;;25.87;40.99;96128.91;5105816;28;19932;-76
2023/07/23 10:56:28;;;;;;;;;;;;;;;26.16;39.60;96121.94;5105162;28;19959;-76
2023/07/23 10:58:55;;;;;;;;;;;;;;;26.40;38.93;96124.00;5105110;28;19945;-77
2023/07/23 11:01:22;;;;;;;;;;;;;;;26.65;38.04;96126.88;5105132;28;19931;-75
2023/07/23 11:03:48;;;;;;;;;;;;;;;26.88;37.18;96133.47;5105335;28;19939;-77
2023/07/23 11:06:27;;;;;;;;;;;;;;;27.03;36.16;96142.81;5105052;28;20100;-76
2023/07/23 11:08:54;;;;;;;;;;;;;;;27.21;37.41;96143.41;5105055;28;19934;-82
2023/07/23 11:11:27;;;;;;;;;;;;;;;27.38;36.86;96136.28;5105414;28;19949;-71
2023/07/23 11:13:53;;;;;;;;;;;;;;;27.33;36.66;96148.06;5105816;28;19934;-71
2023/07/23 11:16:19;;;;;;;;;;;;;;;27.36;35.96;96135.84;5104856;28;19933;-71
2023/07/23 11:18:46;;;;;;;;;;;;;;;27.41;35.33;96138.34;5105552;28;20154;-71
2023/07/23 11:21:14;;;;;;;;;;;;;;;27.43;35.37;96138.78;5104787;28;19941;-71
2023/07/23 11:23:39;;;;;;;;;;;;;;;27.49;36.83;96137.44;5105475;28;19931;-72
2023/07/23 11:26:05;;;;;;;;;;;;;;;27.64;35.81;96117.94;5105548;28;20205;-71
2023/07/23 11:28:34;;;;;;;;;;;;;;;27.69;34.30;96127.69;5104607;28;20215;-72
2023/07/23 11:31:00;;;;;;;;;;;;;;;27.41;33.91;96127.56;5105327;28;19950;-78
2023/07/23 11:33:27;;;;;;;;;;;;;;;27.43;33.56;96141.47;5104613;28;19929;-78
2023/07/23 11:35:52;;;;;;;;;;;;;;;27.55;33.23;96136.13;5105011;28;19936;-76
2023/07/23 11:38:18;;;;;;;;;;;;;;;27.54;33.53;96138.00;5105287;28;19931;-78
2023/07/23 11:40:52;;;;;;;;;;;;;;;27.39;32.87;96138.66;5104448;28;19934;-78
2023/07/23 11:43:18;;;;;;;;;;;;;;;27.17;33.71;96145.19;5104312;28;19937;-79
2023/07/23 11:45:45;;;;;;;;;;;;;;;27.03;34.94;96131.25;5104422;28;20157;-79
2023/07/23 11:48:15;;;;;;;;;;;;;;;26.84;34.72;96135.22;5087254;28;20110;-82
2023/07/23 11:50:41;;;;;;;;;;;;;;;26.77;35.50;96147.63;5103308;28;19959;-82
2023/07/23 11:53:07;;;;;;;;;;;;;;;26.68;35.84;96145.81;5105114;28;19942;-81
2023/07/23 11:55:33;;;;;;;;;;;;;;;26.64;35.33;96120.69;5104245;28;19937;-82
2023/07/23 11:57:59;;;;;;;;;;;;;;;26.49;35.69;96126.63;5103984;28;19941;-82
2023/07/23 12:00:25;;;;;;;;;;;;;;;26.45;36.16;96139.94;5104204;28;19932;-81
2023/07/23 12:02:51;;;;;;;;;;;;;;;26.49;35.68;96132.78;5104227;28;20113;-82
2023/07/23 12:05:17;;;;;;;;;;;;;;;26.50;36.26;96123.63;5104717;28;19932;-72
2023/07/23 12:07:43;;;;;;;;;;;;;;;26.50;36.63;96126.31;5104204;28;20211;-69
2023/07/23 12:10:12;;;;;;;;;;;;;;;26.48;36.05;96130.41;5103738;28;20237;-69
2023/07/23 12:12:37;;;;;;;;;;;;;;;26.44;36.02;96127.63;5103983;28;19955;-70
2023/07/23 12:15:04;;;;;;;;;;;;;;;26.37;36.64;96134.63;5104899;28;19995;-69
2023/07/23 12:17:30;;;;;;;;;;;;;;;26.18;35.77;96125.09;5104349;28;19935;-69
2023/07/23 12:19:55;;;;;;;;;;;;;;;26.03;36.61;96123.00;5104532;28;20158;-69
2023/07/23 12:22:24;;;;;;;;;;;;;;;25.91;36.97;96116.44;5104026;28;19934;-73
2023/07/23 12:24:49;;;;;;;;;;;;;;;25.75;37.07;96107.31;5103743;28;19933;-83
2023/07/23 12:27:15;;;;;;;;;;;;;;;25.70;37.80;96120.91;5104034;28;19942;-76
2023/07/23 12:29:42;;;;;;;;;;;;;;;25.75;38.08;96114.59;5104788;28;19944;-77
2023/07/23 12:32:13;;;;;;;;;;;;;;;25.76;37.47;96113.47;5104415;28;19961;-77
2023/07/23 12:34:46;;;;;;;;;;;;;;;25.76;37.25;96100.81;5104685;28;20087;-76
2023/07/23 12:37:12;;;;;;;;;;;;;;;25.73;37.40;96115.69;5104712;28;19948;-77
2023/07/23 12:39:38;;;;;;;;;;;;;;;25.72;38.09;96107.97;5103863;28;20117;-77
2023/07/23 12:42:04;;;;;;;;;;;;;;;25.66;36.88;96102.00;5104256;28;19943;-71
2023/07/23 12:44:30;;;;;;;;;;;;;;;25.63;36.61;96099.16;5081889;28;19971;-79